Terminal Aerodrome Forecast
Issued by NWS

Home | Current Version | Previous Version | Text Only | Print | Product List | Glossary On
Versions: 1 2 3 4 5 6 7 8 9 10 11 12 13 14 15 16 17 18 19
000
FTUS41 KBTV 301845 AAA
TAFRUT
TAF AMD
KRUT 301845Z 3019/3118 32012G20KT 1SM -SN BR BKN015 OVC025
      TEMPO 3019/3022 1/2SM SN BKN006
     FM310000 31009G16KT 6SM -SN OVC022
     FM311100 32010KT P6SM SCT030
      AMD LTD TO CLD VIS AND WIND=

USA.gov is the U.S. government's official web portal to all federal, state and local government web resources and services.